Time;durP1;ratioP1;P1;durP2;ratioP2;P2;SDS_P1;SDS_P2;PMS_P1;PMS_P2;Temp;Humidity;BMP_temperature;BMP_pressure;BME280_temperature;BME280_humidity;BME280_pressure;Samples;Min_cycle;Max_cycle;Signal;HPM_P1;HPM_P2
2023/08/29 00:00:06;;;;;;;1.80;1.67;;;;;;;15.47;100.00;98126.25;4792358;28;20282;-77
2023/08/29 00:02:53;;;;;;;2.90;1.90;;;;;;;15.48;100.00;98113.56;4873163;28;20256;-76
2023/08/29 00:05:40;;;;;;;2.07;1.87;;;;;;;15.44;100.00;98124.94;4814687;28;20629;-78
2023/08/29 00:08:32;;;;;;;1.90;1.80;;;;;;;15.34;100.00;98127.75;4860637;28;20263;-78
2023/08/29 00:11:22;;;;;;;1.80;1.70;;;;;;;15.35;100.00;98137.44;4826548;28;20255;-79
2023/08/29 00:14:15;;;;;;;1.93;1.83;;;;;;;15.39;100.00;98135.00;4826983;28;20314;-79
2023/08/29 00:17:01;;;;;;;1.90;1.80;;;;;;;15.36;100.00;98106.69;4732845;28;20256;-78
2023/08/29 00:19:47;;;;;;;2.03;1.93;;;;;;;15.39;100.00;98137.69;4779849;28;20244;-80
2023/08/29 00:22:37;;;;;;;2.10;2.00;;;;;;;15.40;100.00;98118.50;4790142;28;20228;-81
2023/08/29 00:25:31;;;;;;;2.20;2.10;;;;;;;15.37;100.00;98111.00;4792456;28;20268;-80
2023/08/29 00:28:21;;;;;;;2.30;2.10;;;;;;;15.39;100.00;98103.44;4851417;28;20282;-79
2023/08/29 00:31:07;;;;;;;2.00;1.90;;;;;;;15.45;100.00;98090.66;4823768;28;20333;-78
2023/08/29 00:33:54;;;;;;;2.00;1.90;;;;;;;15.47;100.00;98098.47;4819969;28;23116;-80
2023/08/29 00:36:53;;;;;;;2.67;2.30;;;;;;;15.48;100.00;98108.19;4890637;28;20327;-80
2023/08/29 00:39:42;;;;;;;2.33;2.13;;;;;;;15.44;100.00;98127.63;4817304;28;20224;-76
2023/08/29 00:42:31;;;;;;;2.03;1.93;;;;;;;15.40;100.00;98132.00;4739683;28;22483;-77
2023/08/29 00:45:20;;;;;;;2.10;2.00;;;;;;;15.43;100.00;98122.53;4762084;28;20648;-76
2023/08/29 00:48:10;;;;;;;2.70;2.50;;;;;;;15.47;100.00;98093.06;4827627;28;20372;-78
2023/08/29 00:50:58;;;;;;;3.50;2.13;;;;;;;15.44;100.00;98081.75;4769050;28;20240;-78
2023/08/29 00:53:48;;;;;;;2.40;2.20;;;;;;;15.44;100.00;98095.25;4898208;28;20237;-78
2023/08/29 00:56:35;;;;;;;2.27;2.10;;;;;;;15.47;100.00;98110.06;4863086;28;20347;-80
2023/08/29 00:59:26;;;;;;;2.47;2.27;;;;;;;15.43;100.00;98119.84;4805110;28;20612;-77
2023/08/29 01:02:13;;;;;;;2.37;2.27;;;;;;;15.36;100.00;98116.66;4851920;28;20742;-79
2023/08/29 01:05:00;;;;;;;2.80;2.60;;;;;;;15.30;100.00;98115.91;4782237;28;21355;-78
2023/08/29 01:07:48;;;;;;;2.60;2.40;;;;;;;15.27;100.00;98126.47;4785207;28;20220;-80
2023/08/29 01:10:44;;;;;;;2.83;2.63;;;;;;;15.24;100.00;98119.78;4792664;28;20216;-79
2023/08/29 01:13:40;;;;;;;3.20;2.87;;;;;;;15.22;100.00;98110.34;4825066;28;20717;-78
2023/08/29 01:16:38;;;;;;;3.60;3.30;;;;;;;15.23;100.00;98126.25;4830669;28;20290;-79
2023/08/29 01:19:24;;;;;;;3.73;3.37;;;;;;;15.25;100.00;98126.78;4838382;28;20216;-76
2023/08/29 01:22:34;;;;;;;3.67;3.37;;;;;;;15.24;100.00;98130.56;4767743;28;20623;-80
2023/08/29 01:25:25;;;;;;;4.07;3.73;;;;;;;15.21;100.00;98122.25;4852080;28;20289;-79
2023/08/29 01:28:30;;;;;;;4.20;3.90;;;;;;;15.23;100.00;98082.28;4886868;28;20748;-79
2023/08/29 01:31:19;;;;;;;4.70;4.40;;;;;;;15.21;100.00;98065.59;4821932;28;20248;-77
2023/08/29 01:34:05;;;;;;;4.30;3.90;;;;;;;15.22;100.00;98076.06;4771297;28;20658;-78
2023/08/29 01:36:57;;;;;;;4.93;4.43;;;;;;;15.15;100.00;98072.94;4825374;28;20228;-78
2023/08/29 01:39:44;;;;;;;4.93;4.50;;;;;;;15.22;100.00;98081.47;4815372;28;20248;-80
2023/08/29 01:42:32;;;;;;;5.87;5.10;;;;;;;15.18;100.00;98071.53;4856575;28;20236;-76
2023/08/29 01:45:20;;;;;;;5.20;4.70;;;;;;;15.19;100.00;98056.97;4821593;28;20224;-76
2023/08/29 01:48:25;;;;;;;4.90;4.50;;;;;;;15.21;100.00;98066.38;4782269;28;21168;-77
2023/08/29 01:51:29;;;;;;;4.93;4.43;;;;;;;15.20;100.00;98062.09;4889836;28;20232;-78
2023/08/29 01:54:15;;;;;;;5.23;4.83;;;;;;;15.17;100.00;98051.84;4830334;28;20236;-77
2023/08/29 01:57:06;;;;;;;5.70;5.00;;;;;;;15.15;100.00;98039.75;4786486;28;20789;-77
2023/08/29 02:00:00;;;;;;;5.43;4.93;;;;;;;15.20;100.00;98034.31;4717405;28;22213;-76
2023/08/29 02:02:52;;;;;;;5.50;5.10;;;;;;;15.22;100.00;98057.19;4883225;28;20229;-78
2023/08/29 02:05:41;;;;;;;5.27;4.83;;;;;;;15.18;100.00;98072.34;4786273;28;20228;-78
2023/08/29 02:08:33;;;;;;;5.67;5.27;;;;;;;15.23;100.00;98069.59;4739641;28;20275;-77
2023/08/29 02:11:23;;;;;;;5.83;5.33;;;;;;;15.22;100.00;98088.75;4885174;28;20824;-78
2023/08/29 02:14:12;;;;;;;5.40;4.90;;;;;;;15.26;100.00;98108.69;4799684;28;20231;-79
2023/08/29 02:16:59;;;;;;;5.70;4.93;;;;;;;15.25;100.00;98105.19;4717929;28;20732;-80
2023/08/29 02:19:47;;;;;;;6.13;5.00;;;;;;;15.30;100.00;98107.03;4825318;28;20269;-79
2023/08/29 02:22:37;;;;;;;5.40;4.90;;;;;;;15.33;100.00;98111.84;4822693;28;20719;-79
2023/08/29 02:25:26;;;;;;;5.70;5.20;;;;;;;15.37;100.00;98115.56;4737040;28;20232;-79
2023/08/29 02:28:25;;;;;;;5.43;4.97;;;;;;;15.39;100.00;98106.13;4813168;28;20233;-79
2023/08/29 02:31:15;;;;;;;5.40;4.90;;;;;;;15.39;100.00;98105.31;4819894;28;20248;-80
2023/08/29 02:34:19;;;;;;;5.60;5.20;;;;;;;15.48;100.00;98121.66;4847667;28;20228;-78
2023/08/29 02:37:07;;;;;;;5.70;5.20;;;;;;;15.51;100.00;98134.63;4780900;28;20268;-82
2023/08/29 02:39:56;;;;;;;6.03;5.53;;;;;;;15.52;100.00;98128.94;4770568;28;20768;-79
2023/08/29 02:42:45;;;;;;;5.67;5.20;;;;;;;15.46;100.00;98119.25;4812939;28;20290;-79
2023/08/29 02:45:35;;;;;;;5.50;5.00;;;;;;;15.43;100.00;98109.03;4795007;28;20216;-83
2023/08/29 02:48:27;;;;;;;5.33;4.93;;;;;;;15.43;100.00;98100.94;4806692;28;20220;-80
2023/08/29 02:51:16;;;;;;;6.07;5.57;;;;;;;15.44;100.00;98097.16;4741495;28;20627;-79
2023/08/29 02:54:03;;;;;;;6.30;5.70;;;;;;;15.42;100.00;98110.13;4834109;28;20220;-78
2023/08/29 02:56:51;;;;;;;5.97;5.57;;;;;;;15.43;100.00;98119.84;4835208;28;20298;-80
2023/08/29 02:59:37;;;;;;;6.10;5.50;;;;;;;15.44;100.00;98119.53;4840104;28;20603;-79
2023/08/29 03:02:25;;;;;;;6.47;5.30;;;;;;;15.39;100.00;98113.41;4740721;28;20212;-77
2023/08/29 03:05:26;;;;;;;5.47;5.07;;;;;;;15.41;100.00;98103.13;4767184;28;20264;-78
2023/08/29 03:08:16;;;;;;;5.53;5.13;;;;;;;15.40;100.00;98109.59;4831564;28;20228;-77
2023/08/29 03:11:06;;;;;;;5.87;5.47;;;;;;;15.33;100.00;98095.66;4866144;28;20285;-77
2023/08/29 03:13:53;;;;;;;5.63;5.23;;;;;;;15.31;100.00;98092.44;4807922;28;20236;-79
2023/08/29 03:16:39;;;;;;;5.57;5.10;;;;;;;15.30;100.00;98088.16;4784097;28;20264;-78
2023/08/29 03:19:25;;;;;;;6.63;6.03;;;;;;;15.32;100.00;98072.47;4871013;28;20278;-77
2023/08/29 03:22:16;;;;;;;5.90;5.37;;;;;;;15.32;100.00;98054.38;4828312;28;20216;-78
2023/08/29 03:25:06;;;;;;;5.33;4.87;;;;;;;15.39;100.00;98051.34;4820008;28;20606;-76
2023/08/29 03:27:53;;;;;;;5.70;5.10;;;;;;;15.40;100.00;98055.63;4773518;28;22180;-77
2023/08/29 03:30:44;;;;;;;5.33;4.83;;;;;;;15.37;100.00;98058.91;4790158;28;20731;-79
2023/08/29 03:33:32;;;;;;;5.00;4.67;;;;;;;15.39;100.00;98045.94;4766458;28;22449;-80
2023/08/29 03:36:21;;;;;;;5.50;5.00;;;;;;;15.35;100.00;98040.31;4746819;28;20259;-79
2023/08/29 03:39:12;;;;;;;4.97;4.57;;;;;;;15.36;100.00;98050.00;4800475;28;20293;-80
2023/08/29 03:41:59;;;;;;;5.40;4.90;;;;;;;15.36;100.00;98065.38;4796055;28;20321;-80
2023/08/29 03:44:46;;;;;;;5.30;4.90;;;;;;;15.34;100.00;98063.00;4833784;28;20212;-78
2023/08/29 03:47:33;;;;;;;5.83;5.23;;;;;;;15.31;100.00;98043.88;4786105;28;20262;-77
2023/08/29 03:50:23;;;;;;;4.87;4.47;;;;;;;15.32;100.00;98056.28;4766522;28;22225;-78
2023/08/29 03:53:11;;;;;;;5.10;4.63;;;;;;;15.34;100.00;98054.09;4755172;28;20247;-79
2023/08/29 03:56:03;;;;;;;4.93;4.53;;;;;;;15.36;100.00;98052.72;4760002;28;23163;-78
2023/08/29 03:58:49;;;;;;;4.70;4.30;;;;;;;15.38;100.00;98050.53;4840738;28;21150;-78
2023/08/29 04:01:36;;;;;;;4.97;4.57;;;;;;;15.41;100.00;98066.13;4809948;28;20248;-77
2023/08/29 04:04:26;;;;;;;4.80;4.47;;;;;;;15.46;100.00;98064.47;4831790;28;20342;-79
2023/08/29 04:07:16;;;;;;;4.93;4.53;;;;;;;15.49;100.00;98072.00;4753032;28;20637;-78
2023/08/29 04:10:10;;;;;;;4.97;4.50;;;;;;;15.55;100.00;98063.56;4823718;28;20655;-78
2023/08/29 04:12:57;;;;;;;5.93;5.43;;;;;;;15.61;100.00;98067.00;4895060;28;20268;-77
2023/08/29 04:15:47;;;;;;;5.40;5.00;;;;;;;15.66;100.00;98059.66;4805011;28;20220;-80
2023/08/29 04:18:36;;;;;;;6.13;5.63;;;;;;;15.68;100.00;98060.16;4742587;28;20278;-78
2023/08/29 04:21:23;;;;;;;5.73;5.23;;;;;;;15.72;100.00;98057.69;4746028;28;20289;-80
2023/08/29 04:24:13;;;;;;;5.23;4.83;;;;;;;15.74;100.00;98050.91;4825982;28;20343;-79
2023/08/29 04:27:03;;;;;;;5.47;5.07;;;;;;;15.73;100.00;98052.00;4823024;28;21443;-78
2023/08/29 04:29:50;;;;;;;5.33;4.93;;;;;;;15.75;100.00;98044.41;4777503;28;20240;-77
2023/08/29 04:32:39;;;;;;;5.27;4.87;;;;;;;15.78;100.00;98037.63;4803351;28;20712;-82
2023/08/29 04:35:27;;;;;;;5.97;4.67;;;;;;;15.82;100.00;98028.63;4853548;28;20228;-77
2023/08/29 04:38:17;;;;;;;4.90;4.50;;;;;;;15.84;100.00;98036.47;4828938;28;20236;-78
2023/08/29 04:41:03;;;;;;;4.77;4.37;;;;;;;15.91;100.00;98042.28;4744408;28;22119;-78
2023/08/29 04:43:51;;;;;;;4.40;4.10;;;;;;;15.97;100.00;98034.91;4668511;28;23006;-79
2023/08/29 04:46:40;;;;;;;4.67;4.03;;;;;;;16.02;100.00;98041.06;5058771;28;20244;-80
2023/08/29 04:49:11;;;;;;;3.93;3.63;;;;;;;16.00;100.00;98037.06;5048316;28;20292;-80
2023/08/29 04:51:43;;;;;;;4.33;3.93;;;;;;;16.09;100.00;98027.19;5031428;28;20221;-79
2023/08/29 04:54:12;;;;;;;4.27;3.70;;;;;;;16.14;100.00;98013.59;5034313;28;20213;-79
2023/08/29 04:56:41;;;;;;;4.60;3.70;;;;;;;16.20;100.00;98029.41;5048808;28;20255;-80
2023/08/29 04:59:09;;;;;;;3.90;3.60;;;;;;;16.18;100.00;98036.22;5038064;28;20248;-80
2023/08/29 05:01:39;;;;;;;4.00;3.70;;;;;;;16.18;100.00;98039.75;5009437;28;20747;-80
2023/08/29 05:04:12;;;;;;;3.73;3.43;;;;;;;16.25;100.00;98037.44;5009160;28;20210;-79
2023/08/29 05:06:40;;;;;;;4.53;4.13;;;;;;;16.32;100.00;98042.50;5028214;28;20201;-79
2023/08/29 05:09:12;;;;;;;3.63;3.33;;;;;;;16.40;100.00;98046.41;5015104;28;20203;-79
2023/08/29 05:11:41;;;;;;;3.77;3.47;;;;;;;16.46;100.00;98054.16;5050407;28;20195;-79
2023/08/29 05:14:11;;;;;;;3.93;3.30;;;;;;;16.49;100.00;98058.16;5044671;28;20196;-79
2023/08/29 05:16:46;;;;;;;5.83;4.10;;;;;;;16.54;100.00;98063.47;5023856;28;20648;-79
2023/08/29 05:19:13;;;;;;;4.30;3.97;;;;;;;16.53;100.00;98067.28;5045160;28;20195;-80
2023/08/29 05:21:47;;;;;;;5.20;4.80;;;;;;;16.55;100.00;98071.31;5027464;28;20208;-79
2023/08/29 05:24:22;;;;;;;5.07;4.67;;;;;;;16.57;100.00;98082.59;5029942;28;20578;-79
2023/08/29 05:26:53;;;;;;;4.67;4.30;;;;;;;16.57;100.00;98081.81;5026780;28;20205;-79
2023/08/29 05:29:21;;;;;;;5.50;5.00;;;;;;;16.56;100.00;98078.28;5034694;28;20199;-79
2023/08/29 05:31:51;;;;;;;6.73;4.73;;;;;;;16.58;100.00;98078.84;5025036;28;20222;-79
2023/08/29 05:34:31;;;;;;;5.03;4.63;;;;;;;16.66;100.00;98085.47;5039512;28;20202;-80
2023/08/29 05:37:05;;;;;;;4.77;4.37;;;;;;;16.75;100.00;98077.50;5036351;28;20711;-80
2023/08/29 05:39:32;;;;;;;5.00;4.50;;;;;;;16.85;100.00;98080.81;5024494;28;20237;-81
2023/08/29 05:42:05;;;;;;;4.50;4.10;;;;;;;16.88;100.00;98082.13;5038712;28;20200;-81
2023/08/29 05:44:35;;;;;;;4.40;4.10;;;;;;;16.87;100.00;98083.22;5048696;28;20690;-81
2023/08/29 05:47:06;;;;;;;4.07;3.77;;;;;;;16.92;100.00;98081.25;5046291;28;20324;-81
2023/08/29 05:49:36;;;;;;;3.90;3.60;;;;;;;17.02;100.00;98085.66;5051969;28;20186;-83
2023/08/29 05:52:08;;;;;;;3.50;3.30;;;;;;;17.15;100.00;98087.59;5052062;28;20666;-80
2023/08/29 05:54:36;;;;;;;3.20;2.90;;;;;;;17.21;100.00;98089.09;5051892;28;20198;-81
2023/08/29 05:57:05;;;;;;;2.80;2.57;;;;;;;17.28;100.00;98091.41;5028864;28;20305;-78
2023/08/29 05:59:33;;;;;;;2.90;2.70;;;;;;;17.39;100.00;98096.31;5041270;28;20194;-80
2023/08/29 06:02:05;;;;;;;3.70;2.60;;;;;;;17.49;100.00;98089.91;5043560;28;20198;-79
2023/08/29 06:04:37;;;;;;;3.90;2.93;;;;;;;17.61;100.00;98095.63;5050554;28;20226;-80
2023/08/29 06:07:05;;;;;;;3.00;2.80;;;;;;;17.55;100.00;98104.94;5037501;28;20233;-80
2023/08/29 06:09:33;;;;;;;3.33;2.90;;;;;;;17.66;100.00;98100.16;5046019;28;20239;-80
2023/08/29 06:12:00;;;;;;;2.60;2.40;;;;;;;17.67;100.00;98113.41;5044775;28;20194;-79
2023/08/29 06:14:28;;;;;;;3.00;2.33;;;;;;;17.46;100.00;98109.44;5040881;28;20222;-79
2023/08/29 06:16:57;;;;;;;2.50;2.30;;;;;;;17.46;100.00;98104.03;5038754;28;20212;-79
2023/08/29 06:19:28;;;;;;;3.57;2.23;;;;;;;17.46;100.00;98104.84;5040996;28;20192;-80
2023/08/29 06:22:00;;;;;;;2.00;1.80;;;;;;;17.41;100.00;98115.75;5046303;28;20692;-79
2023/08/29 06:24:30;;;;;;;1.90;1.80;;;;;;;17.30;100.00;98118.97;5021756;28;20216;-77
2023/08/29 06:27:00;;;;;;;2.10;2.00;;;;;;;17.28;100.00;98126.56;5044617;28;20205;-77
2023/08/29 06:29:27;;;;;;;2.00;1.90;;;;;;;17.29;100.00;98120.06;5036113;28;20194;-76
2023/08/29 06:31:56;;;;;;;2.10;1.60;;;;;;;17.23;100.00;98124.78;5017650;28;20203;-77
2023/08/29 06:34:23;;;;;;;2.17;1.73;;;;;;;17.15;100.00;98120.06;5046010;28;20199;-78
2023/08/29 06:36:53;;;;;;;1.70;1.60;;;;;;;16.89;100.00;98111.56;5042112;28;20210;-78
2023/08/29 06:39:23;;;;;;;1.90;1.70;;;;;;;16.92;100.00;98108.28;5042987;28;20228;-77
2023/08/29 06:42:00;;;;;;;1.70;1.60;;;;;;;17.18;100.00;98095.09;5041535;28;20292;-76
2023/08/29 06:44:30;;;;;;;3.40;1.73;;;;;;;17.30;100.00;98111.66;5039805;28;20307;-76
2023/08/29 06:47:01;;;;;;;3.27;1.53;;;;;;;17.31;100.00;98120.59;5034359;28;20272;-76
2023/08/29 06:49:49;;;;;;;1.90;1.80;;;;;;;17.53;100.00;98112.56;5033721;28;20206;-77
2023/08/29 06:52:17;;;;;;;2.83;2.50;;;;;;;17.60;100.00;98112.97;5038589;28;20197;-76
2023/08/29 06:54:52;;;;;;;2.73;2.53;;;;;;;17.52;100.00;98124.50;5039684;28;20209;-78
2023/08/29 06:57:20;;;;;;;3.30;2.60;;;;;;;17.76;100.00;98113.50;5034895;28;20219;-76
2023/08/29 06:59:48;;;;;;;3.10;2.87;;;;;;;17.90;100.00;98115.09;5035896;28;20193;-77
2023/08/29 07:02:16;;;;;;;2.23;2.13;;;;;;;18.11;100.00;98125.47;5038580;28;20198;-76
2023/08/29 07:04:44;;;;;;;2.30;2.10;;;;;;;18.05;100.00;98124.78;5047413;28;20227;-76
2023/08/29 07:07:12;;;;;;;2.57;1.63;;;;;;;18.04;100.00;98124.00;5042603;28;20195;-77
2023/08/29 07:10:08;;;;;;;1.73;1.33;;;;;;;17.84;100.00;98115.47;5043839;28;20766;-76
2023/08/29 07:12:42;;;;;;;2.77;1.50;;;;;;;17.58;100.00;98126.84;5046648;28;20187;-76
2023/08/29 07:15:10;;;;;;;1.60;1.50;;;;;;;17.57;100.00;98127.09;5048137;28;20293;-77
2023/08/29 07:17:37;;;;;;;2.13;1.90;;;;;;;17.55;100.00;98135.53;5029200;28;20698;-78
2023/08/29 07:20:15;;;;;;;2.67;1.73;;;;;;;17.36;100.00;98136.72;5042215;28;20194;-77
2023/08/29 07:22:43;;;;;;;2.47;2.00;;;;;;;17.26;100.00;98147.75;5046797;28;20202;-76
2023/08/29 07:25:11;;;;;;;4.90;2.00;;;;;;;17.42;100.00;98152.56;5045051;28;20274;-77
2023/08/29 07:27:40;;;;;;;2.27;1.70;;;;;;;17.39;100.00;98157.78;5037942;28;20198;-82
2023/08/29 07:30:14;;;;;;;2.77;1.87;;;;;;;17.26;100.00;98172.91;5041950;28;20229;-76
2023/08/29 07:32:44;;;;;;;2.67;2.10;;;;;;;17.29;100.00;98166.09;5019313;28;20226;-77
2023/08/29 07:35:16;;;;;;;2.77;1.90;;;;;;;17.24;100.00;98164.28;5040579;28;20226;-76
2023/08/29 07:37:44;;;;;;;1.70;1.60;;;;;;;17.02;100.00;98169.53;5037681;28;20219;-76
2023/08/29 07:40:12;;;;;;;3.33;1.50;;;;;;;17.23;100.00;98164.56;5040196;28;20257;-76
2023/08/29 07:42:40;;;;;;;1.90;1.67;;;;;;;17.12;100.00;98166.66;5043555;28;20261;-78
2023/08/29 07:45:08;;;;;;;1.67;1.50;;;;;;;17.23;100.00;98168.06;5045885;28;20197;-77
2023/08/29 07:47:35;;;;;;;1.60;1.33;;;;;;;17.19;100.00;98161.66;5040932;28;20277;-77
2023/08/29 07:50:03;;;;;;;2.50;1.80;;;;;;;17.17;100.00;98158.44;5045355;28;20271;-76
2023/08/29 07:52:31;;;;;;;2.37;1.50;;;;;;;17.24;100.00;98152.63;5040021;28;20260;-77
2023/08/29 07:55:03;;;;;;;2.23;1.50;;;;;;;17.12;100.00;98159.31;5041913;28;20201;-76
2023/08/29 07:57:33;;;;;;;2.03;1.23;;;;;;;17.07;100.00;98164.84;5047151;28;20221;-77
2023/08/29 08:00:05;;;;;;;1.30;1.13;;;;;;;17.06;100.00;98163.25;5050781;28;20190;-76
2023/08/29 08:02:38;;;;;;;1.47;1.30;;;;;;;17.21;100.00;98170.28;5026882;28;20201;-77
2023/08/29 08:05:11;;;;;;;2.03;1.40;;;;;;;17.21;100.00;98178.41;5041333;28;20667;-76
2023/08/29 08:07:40;;;;;;;2.83;1.40;;;;;;;16.95;100.00;98183.44;5044675;28;20233;-77
2023/08/29 08:10:10;;;;;;;1.27;1.13;;;;;;;17.02;100.00;98189.28;5024469;28;20198;-78
2023/08/29 08:12:38;;;;;;;2.10;1.20;;;;;;;17.10;100.00;98190.50;5022458;28;20191;-76
2023/08/29 08:15:08;;;;;;;2.57;1.27;;;;;;;17.03;100.00;98190.09;5042775;28;20255;-77
2023/08/29 08:17:37;;;;;;;1.53;1.20;;;;;;;17.15;100.00;98191.22;5036575;28;20214;-77
2023/08/29 08:20:08;;;;;;;5.63;1.47;;;;;;;17.14;100.00;98189.59;5040169;28;20197;-79
2023/08/29 08:22:37;;;;;;;1.73;1.30;;;;;;;17.03;100.00;98201.69;5040740;28;20288;-77
2023/08/29 08:25:05;;;;;;;1.30;1.10;;;;;;;17.07;100.00;98196.50;5038274;28;20196;-78
2023/08/29 08:27:32;;;;;;;0.90;0.90;;;;;;;16.87;100.00;98208.47;5030589;28;20679;-77
2023/08/29 08:30:01;;;;;;;1.17;0.97;;;;;;;16.90;100.00;98202.44;5051256;28;20245;-77
2023/08/29 08:32:29;;;;;;;1.13;0.97;;;;;;;16.83;100.00;98207.44;5041782;28;20190;-77
2023/08/29 08:34:56;;;;;;;1.70;0.70;;;;;;;17.03;100.00;98209.81;5046590;28;20258;-78
2023/08/29 08:37:23;;;;;;;0.83;0.70;;;;;;;17.27;100.00;98206.97;5016218;28;20224;-78
2023/08/29 08:39:51;;;;;;;2.20;0.60;;;;;;;17.42;100.00;98216.72;5042769;28;20206;-78
2023/08/29 08:42:19;;;;;;;1.53;0.70;;;;;;;17.28;100.00;98208.59;5047946;28;20274;-77
2023/08/29 08:44:48;;;;;;;1.37;0.80;;;;;;;17.18;100.00;98214.16;5027211;28;20186;-77
2023/08/29 08:47:15;;;;;;;1.73;0.70;;;;;;;17.17;100.00;98216.06;5045578;28;20226;-77
2023/08/29 08:49:43;;;;;;;1.47;0.50;;;;;;;17.19;100.00;98218.50;5029463;28;20213;-80
2023/08/29 08:52:11;;;;;;;0.67;0.60;;;;;;;17.24;100.00;98221.13;5040910;28;20218;-77
2023/08/29 08:54:39;;;;;;;1.30;0.50;;;;;;;17.08;100.00;98219.75;5043945;28;20193;-81
2023/08/29 08:57:07;;;;;;;0.50;0.50;;;;;;;16.89;100.00;98219.78;5033615;28;20190;-78
2023/08/29 08:59:38;;;;;;;0.97;0.40;;;;;;;16.90;100.00;98232.22;5041855;28;20303;-78
2023/08/29 09:02:10;;;;;;;0.50;0.40;;;;;;;16.89;100.00;98219.78;5045080;28;20288;-79
2023/08/29 09:04:39;;;;;;;1.33;0.70;;;;;;;17.09;100.00;98221.34;5044930;28;20193;-79
2023/08/29 09:07:07;;;;;;;0.70;0.50;;;;;;;17.10;100.00;98225.69;5046763;28;20190;-78
2023/08/29 09:09:34;;;;;;;1.80;0.50;;;;;;;17.00;100.00;98225.84;5051176;28;20201;-83
2023/08/29 09:12:02;;;;;;;2.00;0.67;;;;;;;16.96;100.00;98224.81;5055495;28;20197;-77
2023/08/29 09:14:31;;;;;;;0.70;0.50;;;;;;;17.15;100.00;98221.00;5045845;28;20193;-77
2023/08/29 09:17:04;;;;;;;0.50;0.40;;;;;;;17.21;100.00;98216.31;5041786;28;20198;-78
2023/08/29 09:19:36;;;;;;;1.80;0.50;;;;;;;17.45;100.00;98216.94;5043265;28;20224;-75
2023/08/29 09:22:04;;;;;;;1.07;0.50;;;;;;;17.49;100.00;98225.28;5064046;28;20200;-76
2023/08/29 09:24:34;;;;;;;1.43;0.50;;;;;;;17.59;100.00;98227.81;5031991;28;20206;-80
2023/08/29 09:27:09;;;;;;;0.90;0.50;;;;;;;17.78;100.00;98228.53;5030443;28;20194;-76
2023/08/29 09:29:37;;;;;;;0.90;0.60;;;;;;;17.89;100.00;98235.38;5051769;28;20276;-78
2023/08/29 09:32:13;;;;;;;1.67;0.50;;;;;;;17.66;100.00;98239.09;5042707;28;20309;-80
2023/08/29 09:34:41;;;;;;;0.60;0.40;;;;;;;17.69;100.00;98249.31;5043662;28;20676;-76
2023/08/29 09:37:11;;;;;;;0.30;0.30;;;;;;;17.65;100.00;98252.91;5049395;28;20198;-77
2023/08/29 09:39:40;;;;;;;1.03;0.50;;;;;;;17.49;100.00;98255.06;5054495;28;20222;-79
2023/08/29 09:42:10;;;;;;;0.40;0.40;;;;;;;17.63;100.00;98258.66;5050226;28;20225;-76
2023/08/29 09:44:38;;;;;;;0.40;0.40;;;;;;;17.65;100.00;98258.31;5058053;28;20202;-78
2023/08/29 09:47:06;;;;;;;0.93;0.40;;;;;;;17.63;100.00;98258.66;5045421;28;20229;-76
2023/08/29 09:49:48;;;;;;;0.60;0.37;;;;;;;17.74;100.00;98276.31;5053295;28;20284;-79
2023/08/29 09:52:18;;;;;;;1.23;0.40;;;;;;;17.76;100.00;98276.00;5046876;28;20282;-84
2023/08/29 09:54:51;;;;;;;0.97;0.50;;;;;;;17.71;100.00;98274.19;5048151;28;20206;-77
2023/08/29 09:57:25;;;;;;;1.50;0.40;;;;;;;17.65;100.00;98278.09;5042464;28;20278;-76
2023/08/29 09:59:56;;;;;;;0.30;0.30;;;;;;;17.97;100.00;98271.81;5041560;28;20275;-78
2023/08/29 10:02:25;;;;;;;1.07;0.40;;;;;;;18.15;100.00;98283.69;5026804;28;20315;-77
2023/08/29 10:05:06;;;;;;;0.43;0.30;;;;;;;18.19;100.00;98271.13;5028588;28;20199;-77
2023/08/29 10:07:42;;;;;;;0.30;0.23;;;;;;;18.36;100.00;98280.25;5035280;28;20208;-77
2023/08/29 10:10:12;;;;;;;0.40;0.30;;;;;;;18.53;100.00;98281.53;5044112;28;20295;-76
2023/08/29 10:12:43;;;;;;;0.50;0.20;;;;;;;18.80;100.00;98274.16;5048737;28;20193;-76
2023/08/29 10:15:11;;;;;;;0.20;0.20;;;;;;;18.81;100.00;98270.34;5026663;28;20196;-77
2023/08/29 10:17:39;;;;;;;0.27;0.27;;;;;;;18.94;100.00;98260.59;5053050;28;20253;-77
2023/08/29 10:20:12;;;;;;;0.23;0.20;;;;;;;18.96;100.00;98254.84;5042328;28;20276;-76
2023/08/29 10:22:48;;;;;;;0.43;0.30;;;;;;;19.57;100.00;98246.03;5034082;28;20218;-76
2023/08/29 10:25:18;;;;;;;0.10;0.10;;;;;;;20.04;100.00;98258.06;5030680;28;20260;-76
2023/08/29 10:27:45;;;;;;;0.20;0.20;;;;;;;20.00;100.00;98254.38;5051263;28;20272;-78
2023/08/29 10:30:16;;;;;;;0.20;0.20;;;;;;;19.87;100.00;98249.84;5032515;28;20224;-77
2023/08/29 10:32:46;;;;;;;0.80;0.30;;;;;;;19.85;100.00;98257.50;5040232;28;20732;-76
2023/08/29 10:35:18;;;;;;;0.20;0.20;;;;;;;19.84;100.00;98247.75;5050429;28;20197;-78
2023/08/29 10:37:52;;;;;;;0.33;0.33;;;;;;;19.71;100.00;98247.53;5052717;28;20196;-77
2023/08/29 10:40:33;;;;;;;0.50;0.30;;;;;;;19.29;100.00;98258.91;5049379;28;20755;-76
2023/08/29 10:43:03;;;;;;;0.40;0.40;;;;;;;19.36;100.00;98265.50;5051840;28;20193;-76
2023/08/29 10:45:49;;;;;;;0.33;0.33;;;;;;;19.35;100.00;98261.22;5056111;28;20259;-77
2023/08/29 10:48:21;;;;;;;0.40;0.40;;;;;;;19.40;100.00;98265.72;5044016;28;20228;-76
2023/08/29 10:51:07;;;;;;;0.40;0.40;;;;;;;19.56;100.00;98263.44;5051204;28;20702;-76
2023/08/29 10:53:47;;;;;;;0.30;0.30;;;;;;;19.74;100.00;98259.69;5044105;28;20280;-78
2023/08/29 10:56:19;;;;;;;0.30;0.30;;;;;;;19.96;100.00;98256.94;5042378;28;20186;-78
2023/08/29 10:58:50;;;;;;;0.30;0.30;;;;;;;19.89;100.00;98267.44;5044388;28;20213;-76
2023/08/29 11:01:24;;;;;;;0.33;0.30;;;;;;;19.85;100.00;98274.63;5040587;28;20196;-77
2023/08/29 11:03:59;;;;;;;0.40;0.40;;;;;;;19.79;100.00;98265.00;5044419;28;20222;-79
2023/08/29 11:06:53;;;;;;;0.50;0.50;;;;;;;19.56;100.00;98266.13;5036660;28;20221;-76
2023/08/29 11:09:22;;;;;;;0.50;0.50;;;;;;;19.79;100.00;98260.34;5042246;28;20200;-77
2023/08/29 11:12:21;;;;;;;0.70;0.50;;;;;;;19.81;100.00;98251.09;5032874;28;20205;-76
2023/08/29 11:14:52;;;;;;;0.43;0.43;;;;;;;19.93;100.00;98252.09;5027304;28;20214;-76
2023/08/29 11:17:24;;;;;;;0.60;0.60;;;;;;;19.56;100.00;98260.72;5047298;28;20203;-76
2023/08/29 11:19:58;;;;;;;0.60;0.60;;;;;;;19.92;100.00;98247.81;5053919;28;20631;-77
2023/08/29 11:22:26;;;;;;;0.50;0.50;;;;;;;19.93;100.00;98262.19;5045041;28;20206;-77
2023/08/29 11:24:57;;;;;;;0.50;0.50;;;;;;;19.68;100.00;98256.31;5045582;28;20193;-76
2023/08/29 11:27:28;;;;;;;0.70;0.70;;;;;;;19.58;100.00;98262.03;5044713;28;20208;-77
2023/08/29 11:29:59;;;;;;;0.63;0.63;;;;;;;19.34;100.00;98258.78;5048628;28;20192;-76
2023/08/29 11:32:51;;;;;;;0.50;0.50;;;;;;;19.23;100.00;98255.53;5026611;28;20676;-77
2023/08/29 11:35:19;;;;;;;0.63;0.60;;;;;;;19.22;100.00;98253.91;5020380;28;20219;-76
2023/08/29 11:37:47;;;;;;;0.83;0.40;;;;;;;19.18;100.00;98266.50;5044969;28;20196;-77
2023/08/29 11:40:27;;;;;;;0.40;0.40;;;;;;;19.26;100.00;98257.63;5052047;28;20261;-76
2023/08/29 11:43:15;;;;;;;0.40;0.40;;;;;;;19.60;100.00;98254.34;5038911;28;20254;-76
2023/08/29 11:46:03;;;;;;;0.57;0.57;;;;;;;19.95;100.00;98249.88;5060087;28;20232;-78
2023/08/29 11:48:31;;;;;;;0.40;0.40;;;;;;;20.23;100.00;98250.47;5049575;28;20287;-77
2023/08/29 11:51:09;;;;;;;1.03;0.50;;;;;;;20.24;100.00;98265.69;5053269;28;20200;-76
2023/08/29 11:53:38;;;;;;;0.50;0.50;;;;;;;19.95;100.00;98268.91;5038910;28;20684;-77
2023/08/29 11:56:09;;;;;;;0.57;0.57;;;;;;;19.52;100.00;98278.75;5037132;28;20204;-76
2023/08/29 11:58:40;;;;;;;0.50;0.50;;;;;;;19.46;100.00;98272.63;5043602;28;20214;-76
2023/08/29 12:01:12;;;;;;;0.50;0.50;;;;;;;19.27;100.00;98274.72;5046343;28;20281;-79
2023/08/29 12:03:43;;;;;;;0.70;0.70;;;;;;;19.17;100.00;98272.25;5039533;28;20291;-76
2023/08/29 12:06:12;;;;;;;0.50;0.50;;;;;;;19.22;100.00;98275.63;5045521;28;20212;-77
2023/08/29 12:08:43;;;;;;;0.63;0.63;;;;;;;19.61;100.00;98266.81;5045561;28;20205;-76
2023/08/29 12:11:13;;;;;;;1.33;0.50;;;;;;;19.55;100.00;98278.16;5041734;28;20658;-76
2023/08/29 12:13:57;;;;;;;0.43;0.43;;;;;;;19.55;100.00;98284.34;5047113;28;20247;-77